Have a Safe July 4th! 

Flight Track Log - Related Links

Times and Time Zones

All times are in EDT time to prevent confusion due to time zone crossing. See the EJA929 flight status page for this flight to view local times or setup timezone preferences in your user account.

Time Position Orientation Groundspeed Altitude Reporting Facility
EDT Latitude Longitude Course Direction KTS MPH feet Rate Location/Type
Wed 02:38:12 PM 39.0333 -77.5167 349° North 273 314 6,200  Level Potomac TRACON
Wed 02:39:13 PM 39.1000 -77.4833 21° North 269 310 8,900 1,438 Climbing Potomac TRACON
Wed 02:40:13 PM 39.1333 -77.4000 63° Northeast 280 322 9,100 761 Climbing Potomac TRACON
Wed 02:42:38 PM 39.2486 -77.1997 53° Northeast 296 341 11,500 1,129 Climbing Washington Center
Wed 02:43:35 PM 39.3042 -77.0989 55° Northeast 321 369 12,900 1,525 Climbing Washington Center
Wed 02:44:36 PM 39.3244 -76.9733 78° East 346 398 14,500 1,820 Climbing Washington Center
Wed 02:45:37 PM 39.2944 -76.8467 107° East 337 388 16,600 1,261 Climbing Washington Center
Wed 02:46:35 PM 39.2644 -76.7228 107° East 342 394 17,000 202 Climbing Washington Center
Wed 02:47:36 PM 39.2344 -76.5936 107° East 363 418 17,000  Level Washington Center
Wed 02:48:36 PM 39.2353 -76.4650 89° East 353 406 17,000  Level Washington Center
Wed 02:49:38 PM 39.2944 -76.3667 52° Northeast 327 376 17,000  Level Washington Center
Wed 02:50:35 PM 39.3575 -76.2681 50° Northeast 340 391 17,000 -51 Level Washington Center
Wed 02:51:36 PM 39.4183 -76.1800 48° Northeast 345 397 16,900  Descending Washington Center
Wed 02:53:56 PM 39.5833 -75.9333 49° Northeast 353 406 17,000 30 Climbing Philadelphia TRACON
Wed 02:54:56 PM 39.6333 -75.8333 57° Northeast 353 406 17,000 -800 Level Philadelphia TRACON
Wed 02:55:56 PM 39.7000 -75.7500 44° Northeast 357 411 15,400 -1,700 Descending Philadelphia TRACON
Wed 02:56:56 PM 39.7667 -75.6500 49° Northeast 339 390 13,600 -1,200 Descending Philadelphia TRACON
Wed 02:57:56 PM 39.8333 -75.5667 44° Northeast 276 318 13,000 -300 Descending Philadelphia TRACON
Wed 02:58:56 PM 39.8833 -75.5167 37° Northeast 272 313 13,000  Level Philadelphia TRACON
Wed 02:59:56 PM 39.9500 -75.4500 37° Northeast 293 337 13,000  Level Philadelphia TRACON
Wed 03:01:02 PM 40.0167 -75.3833 37° Northeast 299 344 13,000  Level Philadelphia TRACON
Wed 03:01:56 PM 40.0833 -75.3333 30° Northeast 296 341 13,000  Level Philadelphia TRACON
Wed 03:02:56 PM 40.1500 -75.2667 37° Northeast 288 331 13,000 -600 Level Philadelphia TRACON
Wed 03:03:56 PM 40.2167 -75.2167 30° Northeast 287 330 11,800 -1,455 Descending Philadelphia TRACON
Wed 03:06:14 PM 40.3500 -75.0667 41° Northeast 273 314 8,200 -1,455 Descending New York TRACON
Wed 03:07:14 PM 40.4000 -74.9833 52° Northeast 273 314 7,000 -1,339 Descending New York TRACON
Wed 03:08:15 PM 40.4667 -74.9167 37° Northeast 272 313 5,500 -1,450 Descending New York TRACON
Wed 03:09:14 PM 40.5167 -74.8500 45° Northeast 275 316 4,100 -750 Descending New York TRACON
Wed 03:10:15 PM 40.5667 -74.7667 52° Northeast 266 306 4,000 -50 Descending New York TRACON
Wed 03:11:14 PM 40.6167 -74.7000 45° Northeast 266 306 4,000  Level New York TRACON
Wed 03:12:14 PM 40.6667 -74.6500 37° Northeast 262 302 4,000  Level New York TRACON
Wed 03:13:14 PM 40.7333 -74.5833 37° Northeast 260 299 4,000  Level New York TRACON
Wed 03:14:09 PM 40.7833 -74.5333 37° Northeast 257 296 4,000 -365 Level New York TRACON
Wed 03:15:09 PM 40.8333 -74.4833 37° Northeast 266 306 3,300 -500 Descending New York TRACON
Wed 03:16:09 PM 40.9000 -74.4167 37° Northeast 267 307 3,000 -150 Descending New York TRACON
Wed 03:17:09 PM 40.9333 -74.3333 62° Northeast 274 315 3,000  Level New York TRACON
Wed 03:18:09 PM 40.9667 -74.2333 66° East 279 321 3,000 -50 Level New York TRACON
Wed 03:19:08 PM 40.9833 -74.1500 75° East 248 285 2,900 -526 Descending New York TRACON
Wed 03:20:03 PM 41.0000 -74.0833 72° East 240 276 2,000 -417 Descending New York TRACON
Wed 03:21:03 PM 40.9500 -74.0500 153° Southeast 223 257 2,100 -571 Climbing New York TRACON
Wed 03:22:09 PM 40.9000 -74.0500 180° South 160 184 800 -1,182 Descending New York TRACON
Wed 03:24:00 PM 40.8500 -74.0500 108° East  Level FlightAware Approximate
Wed 03:31:00 PM 40.8501 -74.0608 108° East  Level Estimated

Login

Don't have an account? Register now (free) for customized features, flight alerts, and more!